createdAt,value
2019-04-04T00:01:20.544Z,43.08
2019-04-04T00:03:51.522Z,45.15
2019-04-04T00:06:19.773Z,50.50
2019-04-04T00:08:48.578Z,42.10
2019-04-04T00:11:17.320Z,44.10
2019-04-04T00:13:46.072Z,44.83
2019-04-04T00:16:16.079Z,45.45
2019-04-04T00:18:45.373Z,44.25
2019-04-04T00:21:14.123Z,45.78
2019-04-04T00:23:42.938Z,45.03
2019-04-04T00:26:11.978Z,44.77
2019-04-04T00:28:40.718Z,44.93
2019-04-04T00:31:09.523Z,43.20
2019-04-04T00:33:38.278Z,46.13
2019-04-04T00:36:07.026Z,42.03
2019-04-04T00:38:37.719Z,44.58
2019-04-04T00:41:06.294Z,43.63
2019-04-04T00:43:35.038Z,39.83
2019-04-04T00:46:03.813Z,56.28
2019-04-04T00:48:34.271Z,57.05
2019-04-04T00:51:03.058Z,48.40
2019-04-04T00:53:32.753Z,57.30
2019-04-04T00:56:01.578Z,41.68
2019-04-04T00:58:30.323Z,49.23
2019-04-04T01:00:59.160Z,41.28
2019-04-04T01:03:28.110Z,45.40
2019-04-04T01:05:58.383Z,49.58
2019-04-04T01:08:27.178Z,53.63
2019-04-04T01:10:55.914Z,48.68
2019-04-04T01:13:27.582Z,52.00
2019-04-04T01:15:55.149Z,43.40
2019-04-04T01:18:23.894Z,43.78
2019-04-04T01:20:52.683Z,46.90
2019-04-04T01:23:21.439Z,47.50
2019-04-04T01:25:50.178Z,43.58
2019-04-04T01:28:18.943Z,38.02
2019-04-04T01:30:47.688Z,40.78
2019-04-04T01:33:19.675Z,42.67
2019-04-04T01:35:46.958Z,47.15
2019-04-04T01:38:15.693Z,40.70
2019-04-04T01:40:44.458Z,43.33
2019-04-04T01:43:13.218Z,42.45
2019-04-04T01:45:43.721Z,45.03
2019-04-04T01:48:12.484Z,42.08
2019-04-04T01:50:41.209Z,39.70
2019-04-04T01:53:09.985Z,40.05
2019-04-04T01:55:38.747Z,48.10
2019-04-04T01:58:08.018Z,38.90
2019-04-04T02:00:38.012Z,40.35
2019-04-04T02:03:06.770Z,35.75
2019-04-04T02:05:35.546Z,34.88
2019-04-04T02:08:04.612Z,35.73
2019-04-04T02:10:34.955Z,40.25
2019-04-04T02:13:04.248Z,39.30
2019-04-04T02:15:33.054Z,36.65
2019-04-04T02:18:01.887Z,34.13
2019-04-04T02:20:30.608Z,35.73
2019-04-04T02:23:01.175Z,33.63
2019-04-04T02:25:29.906Z,34.03
2019-04-04T02:27:58.726Z,32.93
2019-04-04T02:30:27.467Z,37.88
2019-04-04T02:32:59.438Z,40.15
2019-04-04T02:35:26.767Z,37.35
2019-04-04T02:37:56.176Z,36.55
2019-04-04T02:40:25.228Z,38.38
2019-04-04T02:42:55.394Z,41.73
2019-04-04T02:45:24.450Z,40.30
2019-04-04T02:47:53.247Z,42.67
2019-04-04T02:50:22.028Z,39.55
2019-04-04T02:52:50.826Z,37.83
2019-04-04T02:55:19.590Z,38.17
2019-04-04T02:57:48.411Z,34.70
2019-04-04T03:00:17.771Z,36.35
2019-04-04T03:02:46.585Z,37.88
2019-04-04T03:05:18.752Z,38.33
2019-04-04T03:07:45.867Z,34.95
2019-04-04T03:10:16.490Z,31.27
2019-04-04T03:12:45.149Z,34.88
2019-04-04T03:15:13.911Z,33.92
2019-04-04T03:17:42.764Z,38.75
2019-04-04T03:20:16.265Z,32.23
2019-04-04T03:22:42.028Z,28.85
2019-04-04T03:25:14.440Z,33.85
2019-04-04T03:27:41.331Z,31.33
2019-04-04T03:30:14.602Z,33.28
2019-04-04T03:32:41.071Z,31.75
2019-04-04T03:35:09.856Z,33.02
2019-04-04T03:37:40.956Z,30.68
2019-04-04T03:40:09.491Z,31.60
2019-04-04T03:42:38.310Z,31.45
2019-04-04T03:45:07.550Z,32.45
2019-04-04T03:47:36.316Z,33.38
2019-04-04T03:50:06.831Z,31.77
2019-04-04T03:52:35.630Z,30.80
2019-04-04T03:55:06.772Z,31.65
2019-04-04T03:57:35.670Z,34.98
2019-04-04T04:00:07.574Z,32.65
2019-04-04T04:02:36.551Z,34.92
2019-04-04T04:05:08.229Z,30.02
2019-04-04T04:07:37.011Z,38.15
2019-04-04T04:10:06.812Z,33.95
2019-04-04T04:12:35.636Z,35.17
2019-04-04T04:15:05.640Z,30.70
2019-04-04T04:17:36.246Z,35.45
2019-04-04T04:20:06.056Z,29.65
2019-04-04T04:22:34.809Z,33.67
2019-04-04T04:25:03.819Z,28.57
2019-04-04T04:27:32.770Z,34.75
2019-04-04T04:30:06.125Z,34.38
2019-04-04T04:32:32.207Z,31.60
2019-04-04T04:35:00.998Z,38.17
2019-04-04T04:37:29.809Z,35.88
2019-04-04T04:39:58.591Z,36.60
2019-04-04T04:42:27.567Z,33.33
2019-04-04T04:44:56.410Z,37.05
2019-04-04T04:47:25.169Z,31.42
2019-04-04T04:49:55.502Z,30.25
2019-04-04T04:52:24.468Z,29.82
2019-04-04T04:54:54.803Z,29.00
2019-04-04T04:57:29.782Z,28.00
2019-04-04T04:59:54.312Z,29.60
2019-04-04T05:02:23.083Z,27.85
2019-04-04T05:04:51.867Z,25.37
2019-04-04T05:07:20.611Z,25.48
2019-04-04T05:09:49.468Z,27.37
2019-04-04T05:12:18.245Z,24.20
2019-04-04T05:14:46.988Z,23.52
2019-04-04T05:17:15.811Z,29.80
2019-04-04T05:19:45.218Z,25.85
2019-04-04T05:22:14.049Z,28.52
2019-04-04T05:24:42.828Z,30.72
2019-04-04T05:27:11.596Z,27.22
2019-04-04T05:29:40.397Z,30.88
2019-04-04T05:32:09.170Z,27.40
2019-04-04T05:34:38.035Z,29.85
2019-04-04T05:37:07.299Z,32.38
2019-04-04T05:39:36.790Z,38.92
2019-04-04T05:42:05.679Z,32.85
2019-04-04T05:44:34.467Z,34.18
2019-04-04T05:47:03.229Z,36.20
2019-04-04T05:49:32.017Z,27.87
2019-04-04T05:52:00.830Z,32.85
2019-04-04T05:54:29.630Z,28.12
2019-04-04T05:56:58.389Z,30.15
2019-04-04T05:59:27.229Z,31.70
2019-04-04T06:01:55.969Z,28.65
2019-04-04T06:04:24.849Z,29.15
2019-04-04T06:06:55.600Z,33.88
2019-04-04T06:09:24.149Z,29.75
2019-04-04T06:11:53.761Z,28.40
2019-04-04T06:14:22.735Z,27.17
2019-04-04T06:16:51.529Z,30.88
2019-04-04T06:19:20.289Z,37.95
2019-04-04T06:21:49.898Z,28.15
2019-04-04T06:24:19.354Z,27.87
2019-04-04T06:26:48.115Z,26.68
2019-04-04T06:29:17.347Z,30.25
2019-04-04T06:31:46.851Z,25.37
2019-04-04T06:34:15.629Z,25.00
2019-04-04T06:36:44.409Z,32.50
2019-04-04T06:39:13.171Z,29.50
2019-04-04T06:41:41.989Z,27.52
2019-04-04T06:44:12.757Z,20.00
2019-04-04T06:46:41.230Z,26.50
2019-04-04T06:49:10.022Z,32.60
2019-04-04T06:51:38.791Z,26.27
2019-04-04T06:54:07.574Z,26.02
2019-04-04T06:56:36.352Z,25.43
2019-04-04T06:59:05.123Z,24.02
2019-04-04T07:01:33.892Z,28.12
2019-04-04T07:04:02.653Z,25.77
2019-04-04T07:06:31.413Z,25.48
2019-04-04T07:09:00.152Z,26.20
2019-04-04T07:11:28.955Z,27.27
2019-04-04T07:13:59.186Z,22.82
2019-04-04T07:16:28.192Z,22.15
2019-04-04T07:18:56.952Z,23.05
2019-04-04T07:21:25.702Z,27.17
2019-04-04T07:23:54.513Z,21.25
2019-04-04T07:26:23.244Z,21.93
2019-04-04T07:28:53.974Z,30.55
2019-04-04T07:31:22.493Z,23.47
2019-04-04T07:33:51.252Z,20.97
2019-04-04T07:36:20.828Z,27.58
2019-04-04T07:38:49.684Z,22.73
2019-04-04T07:41:18.404Z,27.30
2019-04-04T07:43:47.192Z,21.50
2019-04-04T07:46:17.157Z,20.35
2019-04-04T07:48:46.132Z,19.92
2019-04-04T07:51:14.874Z,25.88
2019-04-04T07:53:43.612Z,17.52
2019-04-04T07:56:14.257Z,21.70
2019-04-04T07:58:42.826Z,18.62
2019-04-04T08:01:11.632Z,19.98
2019-04-04T08:03:40.415Z,17.73
2019-04-04T08:06:09.172Z,19.73
2019-04-04T08:08:37.990Z,19.15
2019-04-04T08:11:06.772Z,18.27
2019-04-04T08:13:35.592Z,19.20
2019-04-04T08:16:05.232Z,15.78
2019-04-04T08:18:33.962Z,18.50
2019-04-04T08:21:05.529Z,18.00
2019-04-04T08:23:33.193Z,15.13
2019-04-04T08:26:02.293Z,14.25
2019-04-04T08:28:31.045Z,19.60
2019-04-04T08:30:59.772Z,14.98
2019-04-04T08:33:28.512Z,18.05
2019-04-04T08:36:05.942Z,15.95
2019-04-04T08:38:27.773Z,15.78
2019-04-04T08:40:56.533Z,21.00
2019-04-04T08:43:25.272Z,18.60
2019-04-04T08:45:54.073Z,16.95
2019-04-04T08:48:22.812Z,18.98
2019-04-04T08:50:51.592Z,16.23
2019-04-04T08:53:20.352Z,18.50
2019-04-04T08:55:49.173Z,18.62
2019-04-04T08:58:17.912Z,18.82
2019-04-04T09:00:46.653Z,15.58
2019-04-04T09:03:15.432Z,17.48
2019-04-04T09:05:44.233Z,18.87
2019-04-04T09:08:13.013Z,16.55
2019-04-04T09:10:41.732Z,14.63
2019-04-04T09:13:10.592Z,15.63
2019-04-04T09:15:39.372Z,14.78
2019-04-04T09:18:08.132Z,14.47
2019-04-04T09:20:36.933Z,17.48
2019-04-04T09:23:05.692Z,17.98
2019-04-04T09:25:34.432Z,22.70
2019-04-04T09:28:03.235Z,18.60
2019-04-04T09:30:31.982Z,18.60
2019-04-04T09:33:00.773Z,12.68
2019-04-04T09:35:29.533Z,13.90
2019-04-04T09:37:58.293Z,14.85
2019-04-04T09:40:27.073Z,11.78
2019-04-04T09:42:55.803Z,13.70
2019-04-04T09:45:24.612Z,13.38
2019-04-04T09:47:53.352Z,14.10
2019-04-04T09:50:22.073Z,14.25
2019-04-04T09:52:50.893Z,12.88
2019-04-04T09:55:19.717Z,14.73
2019-04-04T09:57:48.532Z,14.10
2019-04-04T10:00:20.936Z,15.43
2019-04-04T10:02:49.675Z,16.32
2019-04-04T10:05:18.693Z,12.75
2019-04-04T10:07:47.432Z,14.23
2019-04-04T10:10:16.993Z,13.48
2019-04-04T10:12:45.734Z,12.95
2019-04-04T10:15:15.143Z,13.10
2019-04-04T10:17:44.412Z,11.63
2019-04-04T10:20:13.262Z,10.00
2019-04-04T10:22:42.054Z,15.13
2019-04-04T10:25:10.973Z,12.37
2019-04-04T10:27:39.773Z,15.40
2019-04-04T10:30:10.292Z,11.63
2019-04-04T10:32:39.263Z,12.90
2019-04-04T10:35:08.612Z,12.28
2019-04-04T10:37:37.414Z,11.88
2019-04-04T10:40:07.814Z,11.08
2019-04-04T10:42:36.592Z,9.15
2019-04-04T10:45:07.412Z,11.40
2019-04-04T10:47:36.212Z,12.03
2019-04-04T10:50:09.673Z,13.15
2019-04-04T10:52:38.517Z,12.60
2019-04-04T10:55:08.052Z,11.15
2019-04-04T10:57:36.793Z,10.70
2019-04-04T11:00:09.756Z,10.80
2019-04-04T11:02:38.512Z,11.85
2019-04-04T11:05:07.513Z,12.50
2019-04-04T11:07:36.353Z,12.58
2019-04-04T11:10:06.735Z,9.40
2019-04-04T11:12:35.494Z,8.53
2019-04-04T11:15:06.234Z,9.35
2019-04-04T11:17:35.032Z,12.45
2019-04-04T11:20:05.213Z,12.78
2019-04-04T11:22:33.953Z,10.85
2019-04-04T11:25:02.712Z,11.40
2019-04-04T11:27:31.481Z,13.40
2019-04-04T11:30:00.234Z,10.75
2019-04-04T11:32:28.992Z,13.08
2019-04-04T11:34:57.793Z,11.97
2019-04-04T11:37:26.573Z,10.40
2019-04-04T11:39:55.418Z,9.63
2019-04-04T11:42:24.193Z,11.60
2019-04-04T11:44:52.936Z,11.57
2019-04-04T11:47:21.712Z,10.78
2019-04-04T11:49:50.561Z,11.93
2019-04-04T11:52:19.340Z,10.78
2019-04-04T11:54:49.682Z,10.63
2019-04-04T11:57:18.420Z,9.13
2019-04-04T11:59:47.212Z,9.55
2019-04-04T12:02:15.961Z,11.53
2019-04-04T12:04:44.692Z,11.83
2019-04-04T12:07:13.509Z,10.15
2019-04-04T12:09:42.232Z,13.08
2019-04-04T12:12:11.015Z,11.25
2019-04-04T12:14:39.752Z,9.10
2019-04-04T12:17:08.517Z,11.93
2019-04-04T12:19:37.252Z,8.05
2019-04-04T12:22:05.981Z,10.78
2019-04-04T12:24:34.773Z,10.80
2019-04-04T12:27:03.514Z,12.70
2019-04-04T12:29:32.273Z,11.15
2019-04-04T12:32:01.053Z,10.10
2019-04-04T12:34:29.794Z,9.48
2019-04-04T12:36:58.595Z,9.88
2019-04-04T12:39:27.332Z,8.93
2019-04-04T12:41:56.082Z,9.73
2019-04-04T12:44:24.832Z,9.28
2019-04-04T12:46:53.574Z,11.45
2019-04-04T12:49:22.372Z,9.13
2019-04-04T12:51:51.132Z,9.30
2019-04-04T12:54:19.892Z,13.60
2019-04-04T12:56:48.696Z,12.15
2019-04-04T12:59:17.513Z,9.55
2019-04-04T13:01:46.293Z,9.45
2019-04-04T13:04:15.034Z,13.50
2019-04-04T13:06:43.813Z,12.78
2019-04-04T13:09:12.593Z,13.68
2019-04-04T13:11:41.373Z,13.55
2019-04-04T13:14:10.156Z,12.13
2019-04-04T13:16:38.900Z,11.97
2019-04-04T13:19:07.745Z,10.95
2019-04-04T13:21:36.492Z,10.50
2019-04-04T13:24:05.513Z,11.03
2019-04-04T13:26:34.292Z,9.58
2019-04-04T13:29:03.075Z,8.08
2019-04-04T13:31:31.892Z,10.78
2019-04-04T13:34:00.637Z,9.15
2019-04-04T13:36:29.396Z,8.25
2019-04-04T13:38:58.180Z,10.98
2019-04-04T13:41:26.933Z,10.93
2019-04-04T13:43:55.742Z,12.68
2019-04-04T13:46:25.883Z,10.80
2019-04-04T13:48:54.934Z,10.13
2019-04-04T13:51:25.500Z,9.25
2019-04-04T13:53:54.472Z,8.85
2019-04-04T13:56:23.272Z,10.15
2019-04-04T13:58:52.053Z,9.40
2019-04-04T14:01:20.795Z,11.30
2019-04-04T14:03:49.594Z,11.05
2019-04-04T14:06:18.349Z,10.85
2019-04-04T14:08:47.113Z,10.32
2019-04-04T14:11:15.913Z,11.68
2019-04-04T14:13:44.647Z,9.25
2019-04-04T14:16:13.394Z,11.53
2019-04-04T14:18:44.484Z,10.40
2019-04-04T14:21:12.714Z,10.63
2019-04-04T14:23:45.168Z,13.68
2019-04-04T14:26:12.932Z,12.58
2019-04-04T14:28:41.652Z,9.93
2019-04-04T14:31:12.430Z,10.20
2019-04-04T14:33:41.474Z,11.65
2019-04-04T14:36:10.232Z,10.00
2019-04-04T14:38:38.954Z,9.73
2019-04-04T14:41:11.538Z,13.35
2019-04-04T14:43:39.640Z,11.35
2019-04-04T14:46:08.414Z,10.18
2019-04-04T14:48:38.053Z,10.78
2019-04-04T14:51:06.893Z,12.73
2019-04-04T14:53:35.672Z,12.93
2019-04-04T14:56:04.513Z,11.73
2019-04-04T14:58:33.273Z,9.55
2019-04-04T15:01:02.258Z,11.68
2019-04-04T15:03:31.040Z,13.40
2019-04-04T15:05:59.813Z,10.48
2019-04-04T15:08:28.554Z,9.05
2019-04-04T15:10:57.461Z,9.75
2019-04-04T15:13:26.256Z,11.33
2019-04-04T15:16:13.039Z,11.48
2019-04-04T15:18:41.894Z,10.20
2019-04-04T15:21:11.052Z,10.58
2019-04-04T15:23:39.854Z,12.33
2019-04-04T15:26:09.887Z,12.40
2019-04-04T15:28:38.767Z,11.97
2019-04-04T15:31:07.796Z,15.15
2019-04-04T15:33:36.553Z,12.15
2019-04-04T15:36:05.278Z,9.50
2019-04-04T15:38:35.259Z,11.08
2019-04-04T15:41:04.095Z,11.73
2019-04-04T15:43:32.813Z,11.78
2019-04-04T15:46:01.613Z,11.78
2019-04-04T15:48:30.355Z,10.45
2019-04-04T15:50:59.114Z,12.13
2019-04-04T15:53:27.935Z,12.58
2019-04-04T15:55:56.667Z,11.80
2019-04-04T15:58:25.713Z,9.93
2019-04-04T16:00:54.683Z,10.78
2019-04-04T16:03:23.452Z,13.30
2019-04-04T16:05:52.194Z,9.25
2019-04-04T16:08:21.033Z,10.58
2019-04-04T16:10:49.769Z,14.05
2019-04-04T16:13:18.534Z,11.40
2019-04-04T16:15:47.350Z,11.90
2019-04-04T16:18:17.575Z,13.50
2019-04-04T16:20:46.314Z,12.60
2019-04-04T16:23:15.129Z,12.03
2019-04-04T16:25:43.912Z,13.75
2019-04-04T16:28:12.652Z,14.13
2019-04-04T16:30:41.492Z,11.57
2019-04-04T16:33:10.204Z,15.03
2019-04-04T16:35:38.994Z,11.28
2019-04-04T16:38:07.773Z,11.85
2019-04-04T16:40:36.553Z,12.15
2019-04-04T16:43:05.294Z,14.70
2019-04-04T16:45:34.113Z,15.63
2019-04-04T16:48:02.893Z,14.75
2019-04-04T16:50:31.732Z,13.13
2019-04-04T16:53:00.553Z,14.35
2019-04-04T16:55:29.293Z,15.53
2019-04-04T16:57:58.056Z,14.45
2019-04-04T17:00:27.574Z,16.57
2019-04-04T17:02:56.333Z,15.23
2019-04-04T17:05:25.193Z,15.63
2019-04-04T17:07:53.993Z,15.40
2019-04-04T17:10:22.734Z,15.55
2019-04-04T17:12:51.521Z,14.70
2019-04-04T17:15:21.894Z,15.23
2019-04-04T17:17:50.656Z,12.73
2019-04-04T17:20:20.887Z,13.20
2019-04-04T17:22:49.773Z,18.67
2019-04-04T17:25:18.615Z,17.98
2019-04-04T17:27:47.392Z,18.52
2019-04-04T17:30:17.852Z,16.23
2019-04-04T17:32:48.884Z,19.85
2019-04-04T17:35:17.194Z,17.98
2019-04-04T17:37:46.014Z,24.15
2019-04-04T17:40:16.137Z,21.55
2019-04-04T17:42:45.339Z,18.98
2019-04-04T17:45:15.392Z,20.77
2019-04-04T17:47:44.274Z,17.77
2019-04-04T17:50:15.489Z,18.55
2019-04-04T17:52:44.992Z,18.35
2019-04-04T17:55:14.452Z,21.02
2019-04-04T17:57:43.312Z,21.27
2019-04-04T18:00:14.633Z,21.52
2019-04-04T18:02:43.449Z,18.27
2019-04-04T18:05:12.632Z,22.58
2019-04-04T18:07:41.401Z,17.60
2019-04-04T18:10:11.113Z,19.40
2019-04-04T18:12:40.828Z,18.73
2019-04-04T18:15:10.093Z,20.57
2019-04-04T18:17:38.852Z,20.15
2019-04-04T18:20:08.988Z,19.67
2019-04-04T18:22:38.033Z,24.35
2019-04-04T18:25:07.834Z,25.77
2019-04-04T18:27:36.614Z,21.05
2019-04-04T18:30:08.334Z,20.52
2019-04-04T18:32:37.213Z,23.80
2019-04-04T18:35:07.672Z,18.95
2019-04-04T18:37:37.069Z,23.47
2019-04-04T18:40:08.392Z,24.85
2019-04-04T18:42:37.177Z,22.17
2019-04-04T18:45:07.613Z,24.63
2019-04-04T18:47:36.435Z,26.10
2019-04-04T18:50:06.994Z,26.85
2019-04-04T18:52:35.874Z,21.90
2019-04-04T18:55:18.685Z,25.35
2019-04-04T18:57:37.015Z,25.55
2019-04-04T19:00:09.113Z,24.70
2019-04-04T19:02:38.092Z,25.70
2019-04-04T19:05:07.673Z,26.10
2019-04-04T19:07:39.528Z,32.08
2019-04-04T19:10:09.000Z,25.02
2019-04-04T19:12:37.892Z,33.20
2019-04-04T19:15:07.815Z,28.20
2019-04-04T19:17:36.889Z,27.62
2019-04-04T19:20:10.417Z,29.55
2019-04-04T19:22:39.560Z,28.87
2019-04-04T19:25:09.812Z,31.10
2019-04-04T19:27:38.722Z,29.48
2019-04-04T19:30:09.073Z,28.38
2019-04-04T19:32:38.033Z,30.97
2019-04-04T19:35:08.272Z,26.97
2019-04-04T19:37:37.213Z,28.15
2019-04-04T19:40:09.133Z,28.60
2019-04-04T19:42:38.080Z,53.38
2019-04-04T19:45:08.614Z,48.13
2019-04-04T19:47:37.492Z,35.75
2019-04-04T19:50:10.932Z,47.83
2019-04-04T19:52:39.773Z,53.48
2019-04-04T19:55:09.353Z,55.95
2019-04-04T19:57:38.174Z,50.75
2019-04-04T20:00:09.013Z,39.25
2019-04-04T20:02:38.623Z,40.90
2019-04-04T20:05:08.461Z,36.77
2019-04-04T20:07:37.212Z,50.75
2019-04-04T20:10:07.296Z,41.25
2019-04-04T20:12:36.292Z,34.83
2019-04-04T20:15:08.313Z,33.98
2019-04-04T20:17:37.234Z,36.28
2019-04-04T20:20:07.993Z,36.33
2019-04-04T20:22:36.843Z,33.80
2019-04-04T20:25:09.060Z,34.88
2019-04-04T20:27:37.856Z,36.10
2019-04-04T20:30:09.033Z,37.25
2019-04-04T20:32:37.956Z,33.80
2019-04-04T20:35:08.353Z,34.75
2019-04-04T20:37:37.139Z,33.18
2019-04-04T20:40:06.953Z,36.40
2019-04-04T20:42:35.693Z,36.00
2019-04-04T20:45:05.792Z,34.85
2019-04-04T20:47:34.633Z,33.08
2019-04-04T20:50:04.400Z,36.33
2019-04-04T20:52:33.152Z,32.75
2019-04-04T20:55:01.952Z,37.03
2019-04-04T20:57:30.693Z,31.35
2019-04-04T20:59:59.419Z,33.30
2019-04-04T21:02:28.232Z,35.00
2019-04-04T21:04:56.993Z,34.50
2019-04-04T21:07:25.756Z,34.92
2019-04-04T21:09:54.573Z,32.28
2019-04-04T21:12:23.334Z,40.90
2019-04-04T21:14:52.073Z,38.38
2019-04-04T21:17:20.873Z,32.50
2019-04-04T21:19:49.635Z,32.83
2019-04-04T21:22:27.505Z,33.30
2019-04-04T21:24:48.933Z,34.60
2019-04-04T21:27:18.885Z,33.90
2019-04-04T21:29:47.812Z,33.85
2019-04-04T21:32:16.614Z,38.30
2019-04-04T21:34:45.353Z,45.65
2019-04-04T21:37:14.134Z,55.35
2019-04-04T21:39:42.953Z,39.50
2019-04-04T21:42:11.735Z,37.10
2019-04-04T21:44:40.495Z,34.27
2019-04-04T21:47:09.313Z,38.40
2019-04-04T21:49:38.072Z,38.92
2019-04-04T21:52:06.802Z,42.40
2019-04-04T21:54:35.634Z,40.48
2019-04-04T21:57:04.392Z,44.83
2019-04-04T21:59:33.133Z,44.48
2019-04-04T22:02:01.935Z,48.02
2019-04-04T22:04:30.693Z,45.80
2019-04-04T22:06:59.443Z,44.15
2019-04-04T22:09:28.273Z,47.33
2019-04-04T22:11:57.033Z,39.45
2019-04-04T22:14:25.794Z,40.38
2019-04-04T22:16:54.661Z,44.98
2019-04-04T22:19:23.434Z,45.90
2019-04-04T22:21:52.192Z,43.28
2019-04-04T22:24:22.421Z,38.75
2019-04-04T22:26:51.475Z,38.00
2019-04-04T22:29:20.253Z,40.05
2019-04-04T22:31:49.079Z,38.40
2019-04-04T22:34:17.834Z,38.23
2019-04-04T22:36:46.642Z,44.20
2019-04-04T22:39:15.513Z,37.17
2019-04-04T22:41:44.255Z,39.38
2019-04-04T22:44:13.667Z,41.65
2019-04-04T22:46:42.683Z,42.33
2019-04-04T22:49:11.748Z,42.95
2019-04-04T22:51:40.686Z,37.90
2019-04-04T22:54:09.728Z,36.53
2019-04-04T22:56:38.610Z,38.28
2019-04-04T22:59:07.628Z,37.88
2019-04-04T23:01:36.607Z,44.35
2019-04-04T23:04:05.648Z,40.23
2019-04-04T23:06:34.548Z,41.35
2019-04-04T23:09:04.569Z,41.10
2019-04-04T23:11:33.448Z,42.62
2019-04-04T23:14:02.449Z,39.90
2019-04-04T23:16:31.449Z,44.80
2019-04-04T23:19:00.348Z,44.42
2019-04-04T23:21:29.348Z,44.80
2019-04-04T23:23:58.388Z,44.40
2019-04-04T23:26:27.750Z,45.70
2019-04-04T23:28:56.729Z,44.65
2019-04-04T23:31:25.787Z,45.92
2019-04-04T23:33:54.767Z,48.87
2019-04-04T23:36:34.350Z,49.77
2019-04-04T23:38:54.551Z,45.17
2019-04-04T23:41:23.446Z,39.55
2019-04-04T23:43:52.427Z,42.58
2019-04-04T23:46:21.787Z,43.08
2019-04-04T23:48:50.836Z,43.50
2019-04-04T23:51:19.748Z,41.50
2019-04-04T23:53:48.748Z,41.13
2019-04-04T23:56:17.729Z,47.10
2019-04-04T23:58:46.732Z,41.33
